Anzoras — EAZC — position and weather

sailwx.info

Track history (hours):
 
Tides and Currents Weather Stations Pressure Air Temp Water Temp Dewpoint Dewpoint Depression Visibility Wind Speed Wind Dir Waves Ship Positions

Anzoras

Last reported at 2017-Jan-13 00:34 UTC. Time now 2017-Jan-23 14:54 UTC.
Position N 38°22' W 010°04'.
Warning: this ship's position is 10 days out of date.

Length 100 m; draft 4.3 m.

Type: Cargo ship. MMSI: 224376000.

Date/timePositionNaut miles runAvg speedWind from/ knotsBaromVisibWave heightAir tempDewpointWater temp
2017-Jan-13 00:34N 38°22' W 010°04'1110.6
2017-Jan-12 23:32N 38°32' W 010°05'1010.6
2017-Jan-12 22:32N 38°43' W 010°07'1010.4
2017-Jan-12 21:34N 38°53' W 010°07'  
2017-Jan-09 19:33N 46°07' W 001°24'8 7.7
2017-Jan-09 18:33N 46°09' W 001°14'0 0.0
2017-Jan-09 17:31N 46°10' W 001°14'0 0.0
2017-Jan-09 16:31N 46°10' W 001°14'0 0.0
2017-Jan-09 15:28N 46°10' W 001°14'0 0.0
2017-Jan-09 14:31N 46°10' W 001°14'0 0.0
2017-Jan-09 13:31N 46°10' W 001°14'0 0.0
2017-Jan-09 12:31N 46°10' W 001°14'0 0.0
2017-Jan-09 11:31N 46°10' W 001°14'0 0.0
2017-Jan-09 10:31N 46°10' W 001°14'0 0.0
2017-Jan-09 09:31N 46°10' W 001°14'0 0.0
2017-Jan-09 08:31N 46°10' W 001°14'0 0.0
2017-Jan-09 07:31N 46°10' W 001°14'0 0.0
2017-Jan-09 06:31N 46°10' W 001°14'0 0.0
2017-Jan-09 05:31N 46°10' W 001°14'0 0.0
2017-Jan-09 04:31N 46°10' W 001°14'0 0.0
2017-Jan-09 03:31N 46°10' W 001°14'0 0.0
2017-Jan-09 02:31N 46°10' W 001°14'0 0.0
2017-Jan-09 01:31N 46°10' W 001°14'0 0.0
2017-Jan-09 00:31N 46°10' W 001°14'0 0.0
2017-Jan-08 23:31N 46°10' W 001°14'0 0.0
2017-Jan-08 22:31N 46°10' W 001°14'0 0.0
2017-Jan-08 21:31N 46°10' W 001°14'0 0.0
2017-Jan-08 20:31N 46°10' W 001°14'0 0.0
2017-Jan-08 19:31N 46°10' W 001°14'0 0.0
2017-Jan-08 18:31N 46°10' W 001°14'0 0.0
2017-Jan-08 17:31N 46°10' W 001°14'0 0.0
2017-Jan-08 16:31N 46°10' W 001°14'0 0.0
2017-Jan-08 15:31N 46°10' W 001°14'0 0.0
2017-Jan-08 14:31N 46°10' W 001°14'0 0.0
2017-Jan-08 13:31N 46°10' W 001°14'0 0.0
2017-Jan-08 12:28N 46°10' W 001°14'0 0.0
2017-Jan-08 11:31N 46°10' W 001°14'0 0.0
2017-Jan-08 10:25N 46°10' W 001°14'0 0.2
2017-Jan-08 09:33N 46°09' W 001°14'4 1.1
2017-Jan-08 05:31N 46°05' W 001°15'0 0.1
2017-Jan-08 04:31N 46°05' W 001°15'0 0.0
2017-Jan-08 03:31N 46°05' W 001°15'0 0.0
2017-Jan-08 02:31N 46°05' W 001°15'0 0.0
2017-Jan-08 01:28N 46°05' W 001°15'0 0.0
2017-Jan-08 00:19N 46°05' W 001°15'0 0.0
2017-Jan-07 23:19N 46°05' W 001°15'0 0.0
2017-Jan-07 22:19N 46°05' W 001°15'0 0.0
2017-Jan-07 21:31N 46°05' W 001°15'0 0.0
2017-Jan-07 19:31N 46°05' W 001°15'4 4.0
2017-Jan-07 18:34N 46°06' W 001°21'1212.1
2017-Jan-07 17:33N 46°09' W 001°37'1212.1
2017-Jan-07 16:33N 46°18' W 001°49'1212.0
2017-Jan-07 15:33N 46°27' W 002°01'1211.8
2017-Jan-07 14:34N 46°34' W 002°15'1212.0
2017-Jan-07 13:33N 46°39' W 002°31'1312.1
2017-Jan-07 12:30N 46°46' W 002°47'1412.3
2017-Jan-07 11:24N 46°52' W 003°04'1112.2
2017-Jan-07 10:30N 46°57' W 003°19'1112.0
2017-Jan-07 09:33N 47°02' W 003°34'1312.1
2017-Jan-07 08:28N 47°09' W 003°50'1111.9
2017-Jan-07 07:33N 47°16' W 004°02'1211.3
2017-Jan-07 06:30N 47°21' W 004°18'1111.2
2017-Jan-07 05:31N 47°27' W 004°32'1311.0
2017-Jan-07 04:17N 47°33' W 004°49'1111.1
2017-Jan-07 03:19N 47°39' W 005°03'265 9.8
2017-Jan-06 00:12N 51°55' W 006°50'710.4
2017-Jan-05 23:34N 52°01' W 006°54'9 9.1
2017-Jan-05 22:32N 52°10' W 006°57'7 6.8
2017-Jan-05 21:34N 52°16' W 007°02'0 0.0
2017-Jan-05 20:33N 52°16' W 007°02'0 0.0
2017-Jan-05 19:30N 52°16' W 007°02'0 0.0
2017-Jan-05 18:30N 52°16' W 007°02'0 0.0
2017-Jan-05 17:33N 52°16' W 007°02'0 0.0
2017-Jan-05 16:30N 52°16' W 007°02'0 0.0
2017-Jan-05 15:33N 52°16' W 007°02'0 0.0
2017-Jan-05 14:30N 52°16' W 007°02'0 0.0
2017-Jan-05 13:30N 52°16' W 007°02'0 0.0
2017-Jan-05 12:33N 52°16' W 007°02'0 0.0
2017-Jan-05 11:33N 52°16' W 007°02'0 0.0
2017-Jan-05 10:33N 52°16' W 007°02'0 0.0
2017-Jan-05 09:33N 52°16' W 007°02'0 0.0
2017-Jan-05 08:33N 52°16' W 007°02'0 0.0
2017-Jan-05 07:33N 52°16' W 007°02'0 0.0
2017-Jan-05 06:33N 52°16' W 007°02'0 0.0
2017-Jan-05 05:24N 52°16' W 007°02'0 0.0
2017-Jan-05 04:33N 52°16' W 007°02'0 0.0
2017-Jan-05 03:33N 52°16' W 007°02'0 0.0
2017-Jan-05 02:33N 52°16' W 007°02'0 0.0
2017-Jan-05 01:30N 52°16' W 007°02'0 0.0
2017-Jan-05 00:33N 52°16' W 007°02'0 0.0
2017-Jan-04 23:33N 52°16' W 007°02'0 0.0
2017-Jan-04 22:30N 52°16' W 007°02'0 0.0
2017-Jan-04 21:33N 52°16' W 007°02'0 0.0
2017-Jan-04 20:24N 52°16' W 007°02'0 0.0
2017-Jan-04 19:33N 52°16' W 007°02'0 0.0
2017-Jan-04 18:30N 52°16' W 007°02'0 0.0
2017-Jan-04 17:33N 52°16' W 007°02'0 0.0
2017-Jan-04 16:30N 52°16' W 007°02'0 0.0
2017-Jan-04 15:30N 52°16' W 007°02'0 0.0
2017-Jan-04 14:33N 52°16' W 007°02'0 0.0
2017-Jan-04 13:33N 52°16' W 007°02'0 0.0
2017-Jan-04 12:33N 52°16' W 007°02'0 0.0
2017-Jan-04 11:33N 52°16' W 007°02'0 0.0
2017-Jan-04 10:33N 52°16' W 007°02'0 0.0
2017-Jan-04 09:33N 52°16' W 007°02'3 3.2
2017-Jan-04 08:32N 52°14' W 006°57'8 8.5
2017-Jan-04 07:33N 52°06' W 006°57'8 7.5
2017-Jan-04 06:29N 51°59' W 006°52'7 7.3
2017-Jan-04 05:33N 51°52' W 006°52'  
Track history (hours):
 
Tides and Currents Weather Stations Pressure Air Temp Water Temp Dewpoint Dewpoint Depression Visibility Wind Speed Wind Dir Waves Ship Positions

Anzoras

Last reported at 2017-Jan-13 00:34 UTC. Time now 2017-Jan-23 14:54 UTC.
Position N 38°22' W 010°04'.
Warning: this ship's position is 10 days out of date.

Length 100 m; draft 4.3 m.

Type: Cargo ship. MMSI: 224376000.

Date/timePositionNaut miles runAvg speedWind from/ knotsBaromVisibWave heightAir tempDewpointWater temp
2017-Jan-13 00:34N 38°22' W 010°04'1110.6
2017-Jan-12 23:32N 38°32' W 010°05'1010.6
2017-Jan-12 22:32N 38°43' W 010°07'1010.4
2017-Jan-12 21:34N 38°53' W 010°07'  
2017-Jan-09 19:33N 46°07' W 001°24'8 7.7
2017-Jan-09 18:33N 46°09' W 001°14'0 0.0
2017-Jan-09 17:31N 46°10' W 001°14'0 0.0
2017-Jan-09 16:31N 46°10' W 001°14'0 0.0
2017-Jan-09 15:28N 46°10' W 001°14'0 0.0
2017-Jan-09 14:31N 46°10' W 001°14'0 0.0
2017-Jan-09 13:31N 46°10' W 001°14'0 0.0
2017-Jan-09 12:31N 46°10' W 001°14'0 0.0
2017-Jan-09 11:31N 46°10' W 001°14'0 0.0
2017-Jan-09 10:31N 46°10' W 001°14'0 0.0
2017-Jan-09 09:31N 46°10' W 001°14'0 0.0
2017-Jan-09 08:31N 46°10' W 001°14'0 0.0
2017-Jan-09 07:31N 46°10' W 001°14'0 0.0
2017-Jan-09 06:31N 46°10' W 001°14'0 0.0
2017-Jan-09 05:31N 46°10' W 001°14'0 0.0
2017-Jan-09 04:31N 46°10' W 001°14'0 0.0
2017-Jan-09 03:31N 46°10' W 001°14'0 0.0
2017-Jan-09 02:31N 46°10' W 001°14'0 0.0
2017-Jan-09 01:31N 46°10' W 001°14'0 0.0
2017-Jan-09 00:31N 46°10' W 001°14'0 0.0
2017-Jan-08 23:31N 46°10' W 001°14'0 0.0
2017-Jan-08 22:31N 46°10' W 001°14'0 0.0
2017-Jan-08 21:31N 46°10' W 001°14'0 0.0
2017-Jan-08 20:31N 46°10' W 001°14'0 0.0
2017-Jan-08 19:31N 46°10' W 001°14'0 0.0
2017-Jan-08 18:31N 46°10' W 001°14'0 0.0
2017-Jan-08 17:31N 46°10' W 001°14'0 0.0
2017-Jan-08 16:31N 46°10' W 001°14'0 0.0
2017-Jan-08 15:31N 46°10' W 001°14'0 0.0
2017-Jan-08 14:31N 46°10' W 001°14'0 0.0
2017-Jan-08 13:31N 46°10' W 001°14'0 0.0
2017-Jan-08 12:28N 46°10' W 001°14'0 0.0
2017-Jan-08 11:31N 46°10' W 001°14'0 0.0
2017-Jan-08 10:25N 46°10' W 001°14'0 0.2
2017-Jan-08 09:33N 46°09' W 001°14'4 1.1
2017-Jan-08 05:31N 46°05' W 001°15'0 0.1
2017-Jan-08 04:31N 46°05' W 001°15'0 0.0
2017-Jan-08 03:31N 46°05' W 001°15'0 0.0
2017-Jan-08 02:31N 46°05' W 001°15'0 0.0
2017-Jan-08 01:28N 46°05' W 001°15'0 0.0
2017-Jan-08 00:19N 46°05' W 001°15'0 0.0
2017-Jan-07 23:19N 46°05' W 001°15'0 0.0
2017-Jan-07 22:19N 46°05' W 001°15'0 0.0
2017-Jan-07 21:31N 46°05' W 001°15'0 0.0
2017-Jan-07 19:31N 46°05' W 001°15'4 4.0
2017-Jan-07 18:34N 46°06' W 001°21'1212.1
2017-Jan-07 17:33N 46°09' W 001°37'1212.1
2017-Jan-07 16:33N 46°18' W 001°49'1212.0
2017-Jan-07 15:33N 46°27' W 002°01'1211.8
2017-Jan-07 14:34N 46°34' W 002°15'1212.0
2017-Jan-07 13:33N 46°39' W 002°31'1312.1
2017-Jan-07 12:30N 46°46' W 002°47'1412.3
2017-Jan-07 11:24N 46°52' W 003°04'1112.2
2017-Jan-07 10:30N 46°57' W 003°19'1112.0
2017-Jan-07 09:33N 47°02' W 003°34'1312.1
2017-Jan-07 08:28N 47°09' W 003°50'1111.9
2017-Jan-07 07:33N 47°16' W 004°02'1211.3
2017-Jan-07 06:30N 47°21' W 004°18'1111.2
2017-Jan-07 05:31N 47°27' W 004°32'1311.0
2017-Jan-07 04:17N 47°33' W 004°49'1111.1
2017-Jan-07 03:19N 47°39' W 005°03'265 9.8
2017-Jan-06 00:12N 51°55' W 006°50'710.4
2017-Jan-05 23:34N 52°01' W 006°54'9 9.1
2017-Jan-05 22:32N 52°10' W 006°57'7 6.8
2017-Jan-05 21:34N 52°16' W 007°02'0 0.0
2017-Jan-05 20:33N 52°16' W 007°02'0 0.0
2017-Jan-05 19:30N 52°16' W 007°02'0 0.0
2017-Jan-05 18:30N 52°16' W 007°02'0 0.0
2017-Jan-05 17:33N 52°16' W 007°02'0 0.0
2017-Jan-05 16:30N 52°16' W 007°02'0 0.0
2017-Jan-05 15:33N 52°16' W 007°02'0 0.0
2017-Jan-05 14:30N 52°16' W 007°02'0 0.0
2017-Jan-05 13:30N 52°16' W 007°02'0 0.0
2017-Jan-05 12:33N 52°16' W 007°02'0 0.0
2017-Jan-05 11:33N 52°16' W 007°02'0 0.0
2017-Jan-05 10:33N 52°16' W 007°02'0 0.0
2017-Jan-05 09:33N 52°16' W 007°02'0 0.0
2017-Jan-05 08:33N 52°16' W 007°02'0 0.0
2017-Jan-05 07:33N 52°16' W 007°02'0 0.0
2017-Jan-05 06:33N 52°16' W 007°02'0 0.0
2017-Jan-05 05:24N 52°16' W 007°02'0 0.0
2017-Jan-05 04:33N 52°16' W 007°02'0 0.0
2017-Jan-05 03:33N 52°16' W 007°02'0 0.0
2017-Jan-05 02:33N 52°16' W 007°02'0 0.0
2017-Jan-05 01:30N 52°16' W 007°02'0 0.0
2017-Jan-05 00:33N 52°16' W 007°02'0 0.0
2017-Jan-04 23:33N 52°16' W 007°02'0 0.0
2017-Jan-04 22:30N 52°16' W 007°02'0 0.0
2017-Jan-04 21:33N 52°16' W 007°02'0 0.0
2017-Jan-04 20:24N 52°16' W 007°02'0 0.0
2017-Jan-04 19:33N 52°16' W 007°02'0 0.0
2017-Jan-04 18:30N 52°16' W 007°02'0 0.0
2017-Jan-04 17:33N 52°16' W 007°02'0 0.0
2017-Jan-04 16:30N 52°16' W 007°02'0 0.0
2017-Jan-04 15:30N 52°16' W 007°02'0 0.0
2017-Jan-04 14:33N 52°16' W 007°02'0 0.0
2017-Jan-04 13:33N 52°16' W 007°02'0 0.0
2017-Jan-04 12:33N 52°16' W 007°02'0 0.0
2017-Jan-04 11:33N 52°16' W 007°02'0 0.0
2017-Jan-04 10:33N 52°16' W 007°02'0 0.0
2017-Jan-04 09:33N 52°16' W 007°02'3 3.2
2017-Jan-04 08:32N 52°14' W 006°57'8 8.5
2017-Jan-04 07:33N 52°06' W 006°57'8 7.5
2017-Jan-04 06:29N 51°59' W 006°52'7 7.3
2017-Jan-04 05:33N 51°52' W 006°52'  

Dump ship's entire track history